sensor_id;sensor_type;location;lat;lon;timestamp;P1;durP1;ratioP1;P2;durP2;ratioP2
52368;SDS011;38298;50.346;3.526;2023-09-18T00:01:56;9.32;;;2.63;;
52368;SDS011;38298;50.346;3.526;2023-09-18T00:04:22;1.65;;;0.90;;
52368;SDS011;38298;50.346;3.526;2023-09-18T00:06:48;4.38;;;0.70;;
52368;SDS011;38298;50.346;3.526;2023-09-18T00:09:14;3.88;;;0.80;;
52368;SDS011;38298;50.346;3.526;2023-09-18T00:11:41;2.67;;;1.13;;
52368;SDS011;38298;50.346;3.526;2023-09-18T00:14:10;3.13;;;1.48;;
52368;SDS011;38298;50.346;3.526;2023-09-18T00:16:36;1.05;;;0.70;;
52368;SDS011;38298;50.346;3.526;2023-09-18T00:22:05;2.13;;;0.70;;
52368;SDS011;38298;50.346;3.526;2023-09-18T00:24:31;1.48;;;0.73;;
52368;SDS011;38298;50.346;3.526;2023-09-18T00:26:58;3.92;;;0.95;;
52368;SDS011;38298;50.346;3.526;2023-09-18T00:29:24;2.78;;;1.15;;
52368;SDS011;38298;50.346;3.526;2023-09-18T00:31:50;2.13;;;1.08;;
52368;SDS011;38298;50.346;3.526;2023-09-18T00:34:16;3.10;;;0.80;;
52368;SDS011;38298;50.346;3.526;2023-09-18T00:36:42;2.08;;;1.00;;
52368;SDS011;38298;50.346;3.526;2023-09-18T00:39:09;1.02;;;0.70;;
52368;SDS011;38298;50.346;3.526;2023-09-18T00:41:35;3.38;;;0.68;;
52368;SDS011;38298;50.346;3.526;2023-09-18T00:44:02;0.70;;;0.63;;
52368;SDS011;38298;50.346;3.526;2023-09-18T00:46:31;1.23;;;0.90;;
52368;SDS011;38298;50.346;3.526;2023-09-18T00:48:57;1.80;;;0.70;;
52368;SDS011;38298;50.346;3.526;2023-09-18T00:51:23;2.75;;;1.08;;
52368;SDS011;38298;50.346;3.526;2023-09-18T00:53:49;2.15;;;0.65;;
52368;SDS011;38298;50.346;3.526;2023-09-18T00:56:15;1.33;;;0.60;;
52368;SDS011;38298;50.346;3.526;2023-09-18T00:58:41;2.22;;;0.70;;
52368;SDS011;38298;50.346;3.526;2023-09-18T01:01:08;1.98;;;0.80;;
52368;SDS011;38298;50.346;3.526;2023-09-18T01:03:35;3.03;;;1.00;;
52368;SDS011;38298;50.346;3.526;2023-09-18T01:06:01;3.08;;;1.00;;
52368;SDS011;38298;50.346;3.526;2023-09-18T01:08:28;5.65;;;1.73;;
52368;SDS011;38298;50.346;3.526;2023-09-18T01:13:23;3.95;;;1.10;;
52368;SDS011;38298;50.346;3.526;2023-09-18T01:15:58;4.55;;;1.70;;
52368;SDS011;38298;50.346;3.526;2023-09-18T01:18:26;2.42;;;1.23;;
52368;SDS011;38298;50.346;3.526;2023-09-18T01:20:52;3.50;;;1.20;;
52368;SDS011;38298;50.346;3.526;2023-09-18T01:23:18;6.25;;;2.10;;
52368;SDS011;38298;50.346;3.526;2023-09-18T01:25:44;4.22;;;2.15;;
52368;SDS011;38298;50.346;3.526;2023-09-18T01:28:10;6.03;;;1.52;;
52368;SDS011;38298;50.346;3.526;2023-09-18T01:30:36;3.78;;;1.70;;
52368;SDS011;38298;50.346;3.526;2023-09-18T01:33:03;2.75;;;1.40;;
52368;SDS011;38298;50.346;3.526;2023-09-18T01:35:29;3.58;;;2.03;;
52368;SDS011;38298;50.346;3.526;2023-09-18T01:37:57;4.43;;;1.65;;
52368;SDS011;38298;50.346;3.526;2023-09-18T01:40:24;2.50;;;1.50;;
52368;SDS011;38298;50.346;3.526;2023-09-18T01:42:51;1.60;;;1.10;;
52368;SDS011;38298;50.346;3.526;2023-09-18T01:45:17;3.08;;;1.45;;
52368;SDS011;38298;50.346;3.526;2023-09-18T01:47:43;3.70;;;1.10;;
52368;SDS011;38298;50.346;3.526;2023-09-18T01:50:09;2.33;;;1.10;;
52368;SDS011;38298;50.346;3.526;2023-09-18T01:52:36;3.35;;;1.00;;
52368;SDS011;38298;50.346;3.526;2023-09-18T01:55:02;3.92;;;1.15;;
52368;SDS011;38298;50.346;3.526;2023-09-18T01:57:32;3.25;;;1.10;;
52368;SDS011;38298;50.346;3.526;2023-09-18T01:59:58;6.00;;;1.30;;
52368;SDS011;38298;50.346;3.526;2023-09-18T02:02:24;1.45;;;1.10;;
52368;SDS011;38298;50.346;3.526;2023-09-18T02:04:50;2.08;;;1.20;;
52368;SDS011;38298;50.346;3.526;2023-09-18T02:07:16;4.95;;;0.80;;
52368;SDS011;38298;50.346;3.526;2023-09-18T02:09:42;3.75;;;1.15;;
52368;SDS011;38298;50.346;3.526;2023-09-18T02:12:09;3.58;;;1.20;;
52368;SDS011;38298;50.346;3.526;2023-09-18T02:14:36;3.05;;;1.33;;
52368;SDS011;38298;50.346;3.526;2023-09-18T02:17:03;1.48;;;1.02;;
52368;SDS011;38298;50.346;3.526;2023-09-18T02:19:30;2.17;;;0.93;;
52368;SDS011;38298;50.346;3.526;2023-09-18T02:21:56;8.10;;;1.23;;
52368;SDS011;38298;50.346;3.526;2023-09-18T02:24:22;3.65;;;1.10;;
52368;SDS011;38298;50.346;3.526;2023-09-18T02:26:49;5.18;;;1.00;;
52368;SDS011;38298;50.346;3.526;2023-09-18T02:29:15;1.23;;;1.00;;
52368;SDS011;38298;50.346;3.526;2023-09-18T02:31:41;2.67;;;1.00;;
52368;SDS011;38298;50.346;3.526;2023-09-18T02:34:07;2.22;;;1.08;;
52368;SDS011;38298;50.346;3.526;2023-09-18T02:36:34;2.22;;;0.93;;
52368;SDS011;38298;50.346;3.526;2023-09-18T02:39:00;3.17;;;1.10;;
52368;SDS011;38298;50.346;3.526;2023-09-18T02:41:26;1.15;;;0.80;;
52368;SDS011;38298;50.346;3.526;2023-09-18T02:43:52;1.60;;;0.82;;
52368;SDS011;38298;50.346;3.526;2023-09-18T02:46:18;1.92;;;1.08;;
52368;SDS011;38298;50.346;3.526;2023-09-18T02:48:44;3.03;;;1.05;;
52368;SDS011;38298;50.346;3.526;2023-09-18T02:51:10;2.05;;;1.00;;
52368;SDS011;38298;50.346;3.526;2023-09-18T02:53:36;2.30;;;1.10;;
52368;SDS011;38298;50.346;3.526;2023-09-18T02:56:02;1.35;;;0.98;;
52368;SDS011;38298;50.346;3.526;2023-09-18T02:58:28;4.75;;;1.17;;
52368;SDS011;38298;50.346;3.526;2023-09-18T03:00:55;2.00;;;1.02;;
52368;SDS011;38298;50.346;3.526;2023-09-18T03:03:25;3.60;;;0.75;;
52368;SDS011;38298;50.346;3.526;2023-09-18T03:05:51;2.17;;;1.08;;
52368;SDS011;38298;50.346;3.526;2023-09-18T03:08:17;6.75;;;1.38;;
52368;SDS011;38298;50.346;3.526;2023-09-18T03:10:43;2.75;;;0.82;;
52368;SDS011;38298;50.346;3.526;2023-09-18T03:13:10;1.77;;;0.90;;
52368;SDS011;38298;50.346;3.526;2023-09-18T03:15:36;1.85;;;1.48;;
52368;SDS011;38298;50.346;3.526;2023-09-18T03:18:03;2.67;;;0.98;;
52368;SDS011;38298;50.346;3.526;2023-09-18T03:20:29;1.38;;;0.82;;
52368;SDS011;38298;50.346;3.526;2023-09-18T03:23:00;2.08;;;1.08;;
52368;SDS011;38298;50.346;3.526;2023-09-18T03:27:52;2.20;;;0.88;;
52368;SDS011;38298;50.346;3.526;2023-09-18T03:30:19;4.40;;;0.90;;
52368;SDS011;38298;50.346;3.526;2023-09-18T03:32:46;2.80;;;1.02;;
52368;SDS011;38298;50.346;3.526;2023-09-18T03:35:13;10.20;;;1.63;;
52368;SDS011;38298;50.346;3.526;2023-09-18T03:37:45;4.15;;;0.98;;
52368;SDS011;38298;50.346;3.526;2023-09-18T03:40:11;2.22;;;0.98;;
52368;SDS011;38298;50.346;3.526;2023-09-18T03:42:38;6.03;;;1.50;;
52368;SDS011;38298;50.346;3.526;2023-09-18T03:45:07;4.20;;;1.20;;
52368;SDS011;38298;50.346;3.526;2023-09-18T03:47:37;4.22;;;1.17;;
52368;SDS011;38298;50.346;3.526;2023-09-18T03:50:07;4.05;;;1.10;;
52368;SDS011;38298;50.346;3.526;2023-09-18T03:52:33;4.95;;;0.98;;
52368;SDS011;38298;50.346;3.526;2023-09-18T03:54:59;1.95;;;1.02;;
52368;SDS011;38298;50.346;3.526;2023-09-18T03:57:25;2.53;;;1.25;;
52368;SDS011;38298;50.346;3.526;2023-09-18T03:59:51;2.88;;;1.10;;
52368;SDS011;38298;50.346;3.526;2023-09-18T04:02:17;3.83;;;1.20;;
52368;SDS011;38298;50.346;3.526;2023-09-18T04:04:43;4.43;;;1.30;;
52368;SDS011;38298;50.346;3.526;2023-09-18T04:07:09;4.00;;;1.38;;
52368;SDS011;38298;50.346;3.526;2023-09-18T04:09:36;5.80;;;1.15;;
52368;SDS011;38298;50.346;3.526;2023-09-18T04:12:03;3.60;;;1.13;;
52368;SDS011;38298;50.346;3.526;2023-09-18T04:14:33;3.25;;;0.85;;
52368;SDS011;38298;50.346;3.526;2023-09-18T04:16:59;6.03;;;1.23;;
52368;SDS011;38298;50.346;3.526;2023-09-18T04:19:28;2.35;;;1.02;;
52368;SDS011;38298;50.346;3.526;2023-09-18T04:21:54;3.00;;;0.90;;
52368;SDS011;38298;50.346;3.526;2023-09-18T04:24:20;1.88;;;0.82;;
52368;SDS011;38298;50.346;3.526;2023-09-18T04:26:47;3.38;;;1.00;;
52368;SDS011;38298;50.346;3.526;2023-09-18T04:29:15;3.00;;;0.90;;
52368;SDS011;38298;50.346;3.526;2023-09-18T04:31:41;2.58;;;0.77;;
52368;SDS011;38298;50.346;3.526;2023-09-18T04:34:07;4.43;;;1.13;;
52368;SDS011;38298;50.346;3.526;2023-09-18T04:36:33;1.40;;;0.80;;
52368;SDS011;38298;50.346;3.526;2023-09-18T04:39:01;1.75;;;1.23;;
52368;SDS011;38298;50.346;3.526;2023-09-18T04:41:29;2.15;;;1.30;;
52368;SDS011;38298;50.346;3.526;2023-09-18T04:43:55;2.25;;;1.25;;
52368;SDS011;38298;50.346;3.526;2023-09-18T04:46:21;2.95;;;1.15;;
52368;SDS011;38298;50.346;3.526;2023-09-18T04:48:48;1.95;;;1.00;;
52368;SDS011;38298;50.346;3.526;2023-09-18T04:51:14;8.13;;;1.33;;
52368;SDS011;38298;50.346;3.526;2023-09-18T04:53:41;4.00;;;1.52;;
52368;SDS011;38298;50.346;3.526;2023-09-18T04:56:07;2.40;;;1.10;;
52368;SDS011;38298;50.346;3.526;2023-09-18T04:58:35;5.50;;;1.50;;
52368;SDS011;38298;50.346;3.526;2023-09-18T05:01:02;3.83;;;1.60;;
52368;SDS011;38298;50.346;3.526;2023-09-18T05:03:30;3.85;;;1.48;;
52368;SDS011;38298;50.346;3.526;2023-09-18T05:05:56;6.28;;;1.70;;
52368;SDS011;38298;50.346;3.526;2023-09-18T05:08:23;5.15;;;2.20;;
52368;SDS011;38298;50.346;3.526;2023-09-18T05:10:48;5.03;;;1.58;;
52368;SDS011;38298;50.346;3.526;2023-09-18T05:13:15;2.83;;;1.83;;
52368;SDS011;38298;50.346;3.526;2023-09-18T05:15:41;4.47;;;2.30;;
52368;SDS011;38298;50.346;3.526;2023-09-18T05:18:07;9.00;;;2.53;;
52368;SDS011;38298;50.346;3.526;2023-09-18T05:20:34;6.18;;;2.10;;
52368;SDS011;38298;50.346;3.526;2023-09-18T05:23:00;6.07;;;2.40;;
52368;SDS011;38298;50.346;3.526;2023-09-18T05:25:29;4.78;;;2.20;;
52368;SDS011;38298;50.346;3.526;2023-09-18T05:27:59;5.45;;;2.53;;
52368;SDS011;38298;50.346;3.526;2023-09-18T05:30:26;6.60;;;2.47;;
52368;SDS011;38298;50.346;3.526;2023-09-18T05:32:58;4.90;;;2.55;;
52368;SDS011;38298;50.346;3.526;2023-09-18T05:35:33;6.45;;;2.90;;
52368;SDS011;38298;50.346;3.526;2023-09-18T05:38:00;7.28;;;2.75;;
52368;SDS011;38298;50.346;3.526;2023-09-18T05:40:26;8.75;;;2.65;;
52368;SDS011;38298;50.346;3.526;2023-09-18T05:42:53;4.50;;;2.55;;
52368;SDS011;38298;50.346;3.526;2023-09-18T05:45:19;4.80;;;3.10;;
52368;SDS011;38298;50.346;3.526;2023-09-18T05:47:45;4.78;;;2.65;;
52368;SDS011;38298;50.346;3.526;2023-09-18T05:50:12;5.35;;;2.70;;
52368;SDS011;38298;50.346;3.526;2023-09-18T05:52:45;6.70;;;3.00;;
52368;SDS011;38298;50.346;3.526;2023-09-18T05:55:11;6.80;;;2.57;;
52368;SDS011;38298;50.346;3.526;2023-09-18T05:57:37;7.93;;;2.55;;
52368;SDS011;38298;50.346;3.526;2023-09-18T06:00:03;4.75;;;2.45;;
52368;SDS011;38298;50.346;3.526;2023-09-18T06:02:30;4.35;;;2.65;;
52368;SDS011;38298;50.346;3.526;2023-09-18T06:04:56;6.57;;;2.72;;
52368;SDS011;38298;50.346;3.526;2023-09-18T06:07:24;3.90;;;2.58;;
52368;SDS011;38298;50.346;3.526;2023-09-18T06:09:50;4.63;;;2.33;;
52368;SDS011;38298;50.346;3.526;2023-09-18T06:12:16;6.80;;;2.53;;
52368;SDS011;38298;50.346;3.526;2023-09-18T06:14:42;8.70;;;2.67;;
52368;SDS011;38298;50.346;3.526;2023-09-18T06:17:08;5.95;;;2.63;;
52368;SDS011;38298;50.346;3.526;2023-09-18T06:19:34;3.60;;;2.35;;
52368;SDS011;38298;50.346;3.526;2023-09-18T06:22:01;10.32;;;2.70;;
52368;SDS011;38298;50.346;3.526;2023-09-18T06:24:27;5.00;;;2.67;;
52368;SDS011;38298;50.346;3.526;2023-09-18T06:26:53;3.72;;;2.50;;
52368;SDS011;38298;50.346;3.526;2023-09-18T06:29:19;5.13;;;2.40;;
52368;SDS011;38298;50.346;3.526;2023-09-18T06:31:45;4.30;;;2.80;;
52368;SDS011;38298;50.346;3.526;2023-09-18T06:34:12;5.25;;;2.42;;
52368;SDS011;38298;50.346;3.526;2023-09-18T06:36:38;2.17;;;1.98;;
52368;SDS011;38298;50.346;3.526;2023-09-18T06:39:04;6.70;;;2.75;;
52368;SDS011;38298;50.346;3.526;2023-09-18T06:41:30;5.18;;;2.20;;
52368;SDS011;38298;50.346;3.526;2023-09-18T06:43:56;6.07;;;2.65;;
52368;SDS011;38298;50.346;3.526;2023-09-18T06:46:22;7.15;;;2.40;;
52368;SDS011;38298;50.346;3.526;2023-09-18T06:48:48;2.40;;;1.80;;
52368;SDS011;38298;50.346;3.526;2023-09-18T06:51:16;4.28;;;2.20;;
52368;SDS011;38298;50.346;3.526;2023-09-18T06:53:43;3.70;;;1.90;;
52368;SDS011;38298;50.346;3.526;2023-09-18T06:56:09;5.22;;;1.60;;
52368;SDS011;38298;50.346;3.526;2023-09-18T06:58:35;3.35;;;1.50;;
52368;SDS011;38298;50.346;3.526;2023-09-18T07:01:01;3.85;;;1.80;;
52368;SDS011;38298;50.346;3.526;2023-09-18T07:03:28;5.95;;;1.77;;
52368;SDS011;38298;50.346;3.526;2023-09-18T07:05:54;4.22;;;1.80;;
52368;SDS011;38298;50.346;3.526;2023-09-18T07:08:20;4.40;;;1.33;;
52368;SDS011;38298;50.346;3.526;2023-09-18T07:10:50;4.35;;;1.48;;
52368;SDS011;38298;50.346;3.526;2023-09-18T07:13:16;5.38;;;1.45;;
52368;SDS011;38298;50.346;3.526;2023-09-18T07:15:42;4.15;;;1.80;;
52368;SDS011;38298;50.346;3.526;2023-09-18T07:18:09;2.53;;;1.80;;
52368;SDS011;38298;50.346;3.526;2023-09-18T07:20:39;4.18;;;1.50;;
52368;SDS011;38298;50.346;3.526;2023-09-18T07:23:05;2.92;;;2.20;;
52368;SDS011;38298;50.346;3.526;2023-09-18T07:25:31;3.53;;;1.60;;
52368;SDS011;38298;50.346;3.526;2023-09-18T07:27:57;4.75;;;2.22;;
52368;SDS011;38298;50.346;3.526;2023-09-18T07:30:23;2.97;;;1.85;;
52368;SDS011;38298;50.346;3.526;2023-09-18T07:32:52;3.80;;;1.60;;
52368;SDS011;38298;50.346;3.526;2023-09-18T07:35:21;4.03;;;1.80;;
52368;SDS011;38298;50.346;3.526;2023-09-18T07:37:47;5.60;;;2.42;;
52368;SDS011;38298;50.346;3.526;2023-09-18T07:40:13;6.47;;;2.13;;
52368;SDS011;38298;50.346;3.526;2023-09-18T07:42:40;3.88;;;2.55;;
52368;SDS011;38298;50.346;3.526;2023-09-18T07:45:08;6.07;;;2.00;;
52368;SDS011;38298;50.346;3.526;2023-09-18T07:47:34;2.92;;;1.98;;
52368;SDS011;38298;50.346;3.526;2023-09-18T07:50:00;5.93;;;2.70;;
52368;SDS011;38298;50.346;3.526;2023-09-18T07:52:27;4.38;;;2.28;;
52368;SDS011;38298;50.346;3.526;2023-09-18T07:54:53;7.95;;;2.75;;
52368;SDS011;38298;50.346;3.526;2023-09-18T07:57:19;4.57;;;2.50;;
52368;SDS011;38298;50.346;3.526;2023-09-18T07:59:45;3.97;;;1.80;;
52368;SDS011;38298;50.346;3.526;2023-09-18T08:02:11;4.55;;;2.03;;
52368;SDS011;38298;50.346;3.526;2023-09-18T08:04:37;7.78;;;2.35;;
52368;SDS011;38298;50.346;3.526;2023-09-18T08:07:04;6.57;;;2.60;;
52368;SDS011;38298;50.346;3.526;2023-09-18T08:09:33;3.47;;;2.50;;
52368;SDS011;38298;50.346;3.526;2023-09-18T08:12:02;7.60;;;2.50;;
52368;SDS011;38298;50.346;3.526;2023-09-18T08:14:28;4.82;;;2.35;;
52368;SDS011;38298;50.346;3.526;2023-09-18T08:16:58;4.65;;;2.33;;
52368;SDS011;38298;50.346;3.526;2023-09-18T08:19:25;7.82;;;2.45;;
52368;SDS011;38298;50.346;3.526;2023-09-18T08:21:52;3.25;;;2.13;;
52368;SDS011;38298;50.346;3.526;2023-09-18T08:24:19;5.25;;;2.80;;
52368;SDS011;38298;50.346;3.526;2023-09-18T08:26:46;5.43;;;2.80;;
52368;SDS011;38298;50.346;3.526;2023-09-18T08:29:12;9.30;;;2.90;;
52368;SDS011;38298;50.346;3.526;2023-09-18T08:31:38;7.75;;;2.42;;
52368;SDS011;38298;50.346;3.526;2023-09-18T08:34:04;7.70;;;2.42;;
52368;SDS011;38298;50.346;3.526;2023-09-18T08:36:30;8.52;;;2.60;;
52368;SDS011;38298;50.346;3.526;2023-09-18T08:38:56;4.03;;;2.33;;
52368;SDS011;38298;50.346;3.526;2023-09-18T08:41:23;8.88;;;2.80;;
52368;SDS011;38298;50.346;3.526;2023-09-18T08:43:52;5.23;;;2.87;;
52368;SDS011;38298;50.346;3.526;2023-09-18T08:46:22;4.40;;;2.35;;
52368;SDS011;38298;50.346;3.526;2023-09-18T08:48:48;6.22;;;2.30;;
52368;SDS011;38298;50.346;3.526;2023-09-18T08:51:15;8.05;;;2.67;;
52368;SDS011;38298;50.346;3.526;2023-09-18T08:53:42;6.20;;;2.60;;
52368;SDS011;38298;50.346;3.526;2023-09-18T08:56:08;8.57;;;3.13;;
52368;SDS011;38298;50.346;3.526;2023-09-18T08:58:35;5.25;;;2.50;;
52368;SDS011;38298;50.346;3.526;2023-09-18T09:01:05;5.95;;;2.28;;
52368;SDS011;38298;50.346;3.526;2023-09-18T09:03:35;7.07;;;2.27;;
52368;SDS011;38298;50.346;3.526;2023-09-18T09:06:01;6.43;;;2.45;;
52368;SDS011;38298;50.346;3.526;2023-09-18T09:08:28;6.88;;;2.40;;
52368;SDS011;38298;50.346;3.526;2023-09-18T09:10:54;4.32;;;2.20;;
52368;SDS011;38298;50.346;3.526;2023-09-18T09:13:23;5.97;;;2.33;;
52368;SDS011;38298;50.346;3.526;2023-09-18T09:15:52;6.97;;;2.50;;
52368;SDS011;38298;50.346;3.526;2023-09-18T09:18:21;4.38;;;2.10;;
52368;SDS011;38298;50.346;3.526;2023-09-18T09:20:53;4.38;;;2.42;;
52368;SDS011;38298;50.346;3.526;2023-09-18T09:23:23;8.15;;;2.25;;
52368;SDS011;38298;50.346;3.526;2023-09-18T09:25:49;3.38;;;2.40;;
52368;SDS011;38298;50.346;3.526;2023-09-18T09:28:15;4.32;;;2.25;;
52368;SDS011;38298;50.346;3.526;2023-09-18T09:30:44;3.78;;;2.03;;
52368;SDS011;38298;50.346;3.526;2023-09-18T09:33:11;8.88;;;2.50;;
52368;SDS011;38298;50.346;3.526;2023-09-18T09:35:37;5.47;;;1.92;;
52368;SDS011;38298;50.346;3.526;2023-09-18T09:40:33;5.10;;;2.30;;
52368;SDS011;38298;50.346;3.526;2023-09-18T09:43:00;6.65;;;2.42;;
52368;SDS011;38298;50.346;3.526;2023-09-18T09:45:32;5.63;;;2.17;;
52368;SDS011;38298;50.346;3.526;2023-09-18T09:48:02;3.80;;;1.90;;
52368;SDS011;38298;50.346;3.526;2023-09-18T09:50:32;5.00;;;2.45;;
52368;SDS011;38298;50.346;3.526;2023-09-18T09:52:58;3.03;;;2.05;;
52368;SDS011;38298;50.346;3.526;2023-09-18T09:55:25;6.05;;;2.20;;
52368;SDS011;38298;50.346;3.526;2023-09-18T09:57:54;2.67;;;1.90;;
52368;SDS011;38298;50.346;3.526;2023-09-18T10:00:28;6.07;;;2.00;;
52368;SDS011;38298;50.346;3.526;2023-09-18T10:02:57;4.97;;;2.45;;
52368;SDS011;38298;50.346;3.526;2023-09-18T10:05:29;5.95;;;2.17;;
52368;SDS011;38298;50.346;3.526;2023-09-18T10:07:59;3.15;;;2.00;;
52368;SDS011;38298;50.346;3.526;2023-09-18T10:12:51;6.93;;;1.70;;
52368;SDS011;38298;50.346;3.526;2023-09-18T10:15:18;3.88;;;1.95;;
52368;SDS011;38298;50.346;3.526;2023-09-18T10:17:45;3.20;;;1.75;;
52368;SDS011;38298;50.346;3.526;2023-09-18T10:20:14;5.35;;;1.63;;
52368;SDS011;38298;50.346;3.526;2023-09-18T10:22:51;2.47;;;1.60;;
52368;SDS011;38298;50.346;3.526;2023-09-18T10:25:23;6.28;;;1.70;;
52368;SDS011;38298;50.346;3.526;2023-09-18T10:27:49;8.52;;;1.65;;
52368;SDS011;38298;50.346;3.526;2023-09-18T10:30:19;2.42;;;1.60;;
52368;SDS011;38298;50.346;3.526;2023-09-18T10:32:47;5.10;;;1.50;;
52368;SDS011;38298;50.346;3.526;2023-09-18T10:35:14;3.30;;;1.88;;
52368;SDS011;38298;50.346;3.526;2023-09-18T10:37:43;5.68;;;1.50;;
52368;SDS011;38298;50.346;3.526;2023-09-18T10:40:10;4.75;;;1.70;;
52368;SDS011;38298;50.346;3.526;2023-09-18T10:42:40;1.77;;;1.55;;
52368;SDS011;38298;50.346;3.526;2023-09-18T10:45:07;3.63;;;1.52;;
52368;SDS011;38298;50.346;3.526;2023-09-18T10:47:35;5.90;;;1.60;;
52368;SDS011;38298;50.346;3.526;2023-09-18T10:50:02;6.55;;;1.40;;
52368;SDS011;38298;50.346;3.526;2023-09-18T10:52:29;2.38;;;1.40;;
52368;SDS011;38298;50.346;3.526;2023-09-18T10:54:55;3.13;;;1.45;;
52368;SDS011;38298;50.346;3.526;2023-09-18T10:57:21;3.00;;;1.20;;
52368;SDS011;38298;50.346;3.526;2023-09-18T10:59:47;2.80;;;1.30;;
52368;SDS011;38298;50.346;3.526;2023-09-18T11:02:14;3.53;;;1.30;;
52368;SDS011;38298;50.346;3.526;2023-09-18T11:04:41;3.10;;;1.40;;
52368;SDS011;38298;50.346;3.526;2023-09-18T11:07:20;4.18;;;1.30;;
52368;SDS011;38298;50.346;3.526;2023-09-18T11:09:48;4.05;;;1.20;;
52368;SDS011;38298;50.346;3.526;2023-09-18T11:12:15;2.70;;;1.27;;
52368;SDS011;38298;50.346;3.526;2023-09-18T11:17:34;3.25;;;1.23;;
52368;SDS011;38298;50.346;3.526;2023-09-18T11:20:04;3.40;;;1.17;;
52368;SDS011;38298;50.346;3.526;2023-09-18T11:22:34;4.53;;;1.33;;
52368;SDS011;38298;50.346;3.526;2023-09-18T11:27:53;2.72;;;1.20;;
52368;SDS011;38298;50.346;3.526;2023-09-18T11:30:20;5.47;;;1.40;;
52368;SDS011;38298;50.346;3.526;2023-09-18T11:32:46;2.75;;;1.02;;
52368;SDS011;38298;50.346;3.526;2023-09-18T11:35:12;5.75;;;1.02;;
52368;SDS011;38298;50.346;3.526;2023-09-18T11:37:42;4.15;;;1.10;;
52368;SDS011;38298;50.346;3.526;2023-09-18T11:40:26;1.10;;;1.00;;
52368;SDS011;38298;50.346;3.526;2023-09-18T11:45:41;2.15;;;1.10;;
52368;SDS011;38298;50.346;3.526;2023-09-18T11:48:07;2.33;;;1.05;;
52368;SDS011;38298;50.346;3.526;2023-09-18T11:50:37;5.97;;;1.00;;
52368;SDS011;38298;50.346;3.526;2023-09-18T11:53:05;3.60;;;1.05;;
52368;SDS011;38298;50.346;3.526;2023-09-18T11:55:31;1.83;;;0.80;;
52368;SDS011;38298;50.346;3.526;2023-09-18T11:57:57;3.05;;;1.25;;
52368;SDS011;38298;50.346;3.526;2023-09-18T12:00:26;2.75;;;1.10;;
52368;SDS011;38298;50.346;3.526;2023-09-18T12:02:54;3.58;;;1.00;;
52368;SDS011;38298;50.346;3.526;2023-09-18T12:05:22;6.10;;;1.60;;
52368;SDS011;38298;50.346;3.526;2023-09-18T12:07:51;1.85;;;1.00;;
52368;SDS011;38298;50.346;3.526;2023-09-18T12:10:17;1.45;;;0.98;;
52368;SDS011;38298;50.346;3.526;2023-09-18T12:12:45;2.28;;;0.90;;
52368;SDS011;38298;50.346;3.526;2023-09-18T12:15:12;3.33;;;1.05;;
52368;SDS011;38298;50.346;3.526;2023-09-18T12:17:39;2.55;;;1.00;;
52368;SDS011;38298;50.346;3.526;2023-09-18T12:20:05;3.65;;;1.17;;
52368;SDS011;38298;50.346;3.526;2023-09-18T12:22:31;2.85;;;1.10;;
52368;SDS011;38298;50.346;3.526;2023-09-18T12:27:36;1.63;;;0.98;;
52368;SDS011;38298;50.346;3.526;2023-09-18T12:30:03;3.53;;;1.00;;
52368;SDS011;38298;50.346;3.526;2023-09-18T12:32:29;6.43;;;1.05;;
52368;SDS011;38298;50.346;3.526;2023-09-18T12:34:57;2.58;;;0.95;;
52368;SDS011;38298;50.346;3.526;2023-09-18T12:37:23;1.98;;;0.95;;
52368;SDS011;38298;50.346;3.526;2023-09-18T12:39:50;2.38;;;1.02;;
52368;SDS011;38298;50.346;3.526;2023-09-18T12:42:17;2.38;;;0.98;;
52368;SDS011;38298;50.346;3.526;2023-09-18T12:44:45;2.92;;;1.38;;
52368;SDS011;38298;50.346;3.526;2023-09-18T12:47:11;1.02;;;0.75;;
52368;SDS011;38298;50.346;3.526;2023-09-18T12:49:38;2.67;;;0.95;;
52368;SDS011;38298;50.346;3.526;2023-09-18T12:52:05;1.95;;;0.90;;
52368;SDS011;38298;50.346;3.526;2023-09-18T12:54:44;3.92;;;0.90;;
52368;SDS011;38298;50.346;3.526;2023-09-18T12:57:19;2.60;;;1.00;;
52368;SDS011;38298;50.346;3.526;2023-09-18T12:59:46;3.10;;;1.00;;
52368;SDS011;38298;50.346;3.526;2023-09-18T13:02:14;3.03;;;0.80;;
52368;SDS011;38298;50.346;3.526;2023-09-18T13:04:40;1.48;;;0.90;;
52368;SDS011;38298;50.346;3.526;2023-09-18T13:07:07;3.15;;;0.75;;
52368;SDS011;38298;50.346;3.526;2023-09-18T13:09:33;2.17;;;0.77;;
52368;SDS011;38298;50.346;3.526;2023-09-18T13:12:00;1.15;;;0.55;;
52368;SDS011;38298;50.346;3.526;2023-09-18T13:14:26;1.85;;;0.77;;
52368;SDS011;38298;50.346;3.526;2023-09-18T13:16:52;2.63;;;0.90;;
52368;SDS011;38298;50.346;3.526;2023-09-18T13:19:19;1.95;;;1.02;;
52368;SDS011;38298;50.346;3.526;2023-09-18T13:21:51;0.80;;;0.80;;
52368;SDS011;38298;50.346;3.526;2023-09-18T13:24:27;1.67;;;0.80;;
52368;SDS011;38298;50.346;3.526;2023-09-18T13:26:53;2.20;;;0.73;;
52368;SDS011;38298;50.346;3.526;2023-09-18T13:29:20;4.18;;;0.75;;
52368;SDS011;38298;50.346;3.526;2023-09-18T13:31:46;1.08;;;0.80;;
52368;SDS011;38298;50.346;3.526;2023-09-18T13:34:12;5.70;;;1.27;;
52368;SDS011;38298;50.346;3.526;2023-09-18T13:36:38;5.07;;;0.90;;
52368;SDS011;38298;50.346;3.526;2023-09-18T13:39:04;3.45;;;1.40;;
52368;SDS011;38298;50.346;3.526;2023-09-18T13:41:30;3.70;;;0.82;;
52368;SDS011;38298;50.346;3.526;2023-09-18T13:43:57;6.35;;;1.48;;
52368;SDS011;38298;50.346;3.526;2023-09-18T13:46:24;4.65;;;0.80;;
52368;SDS011;38298;50.346;3.526;2023-09-18T13:48:50;4.95;;;0.95;;
52368;SDS011;38298;50.346;3.526;2023-09-18T13:51:16;2.35;;;1.05;;
52368;SDS011;38298;50.346;3.526;2023-09-18T13:53:42;3.33;;;0.90;;
52368;SDS011;38298;50.346;3.526;2023-09-18T13:56:08;2.97;;;0.90;;
52368;SDS011;38298;50.346;3.526;2023-09-18T13:58:34;3.05;;;1.20;;
52368;SDS011;38298;50.346;3.526;2023-09-18T14:01:06;2.08;;;0.90;;
52368;SDS011;38298;50.346;3.526;2023-09-18T14:03:32;2.25;;;1.00;;
52368;SDS011;38298;50.346;3.526;2023-09-18T14:05:59;3.53;;;1.10;;
52368;SDS011;38298;50.346;3.526;2023-09-18T14:08:25;4.13;;;1.33;;
52368;SDS011;38298;50.346;3.526;2023-09-18T14:10:51;4.05;;;1.20;;
52368;SDS011;38298;50.346;3.526;2023-09-18T14:13:17;1.73;;;1.00;;
52368;SDS011;38298;50.346;3.526;2023-09-18T14:15:43;4.00;;;1.58;;
52368;SDS011;38298;50.346;3.526;2023-09-18T14:18:09;2.22;;;1.05;;
52368;SDS011;38298;50.346;3.526;2023-09-18T14:20:35;2.08;;;1.05;;
52368;SDS011;38298;50.346;3.526;2023-09-18T14:23:01;1.88;;;1.33;;
52368;SDS011;38298;50.346;3.526;2023-09-18T14:25:28;2.70;;;1.13;;
52368;SDS011;38298;50.346;3.526;2023-09-18T14:27:55;3.60;;;1.10;;
52368;SDS011;38298;50.346;3.526;2023-09-18T14:30:21;8.40;;;2.10;;
52368;SDS011;38298;50.346;3.526;2023-09-18T14:32:51;3.55;;;1.58;;
52368;SDS011;38298;50.346;3.526;2023-09-18T14:35:17;5.47;;;1.70;;
52368;SDS011;38298;50.346;3.526;2023-09-18T14:37:43;2.13;;;1.15;;
52368;SDS011;38298;50.346;3.526;2023-09-18T14:40:09;5.00;;;1.35;;
52368;SDS011;38298;50.346;3.526;2023-09-18T14:42:36;2.05;;;1.10;;
52368;SDS011;38298;50.346;3.526;2023-09-18T14:45:02;2.55;;;1.30;;
52368;SDS011;38298;50.346;3.526;2023-09-18T14:47:29;3.38;;;1.30;;
52368;SDS011;38298;50.346;3.526;2023-09-18T14:49:55;1.27;;;0.95;;
52368;SDS011;38298;50.346;3.526;2023-09-18T14:52:23;3.15;;;1.00;;
52368;SDS011;38298;50.346;3.526;2023-09-18T14:54:51;1.52;;;1.00;;
52368;SDS011;38298;50.346;3.526;2023-09-18T14:57:17;2.10;;;0.98;;
52368;SDS011;38298;50.346;3.526;2023-09-18T14:59:43;1.58;;;0.80;;
52368;SDS011;38298;50.346;3.526;2023-09-18T15:02:12;1.50;;;0.60;;
52368;SDS011;38298;50.346;3.526;2023-09-18T15:04:39;2.45;;;0.70;;
52368;SDS011;38298;50.346;3.526;2023-09-18T15:07:05;2.70;;;0.55;;
52368;SDS011;38298;50.346;3.526;2023-09-18T15:09:31;3.38;;;0.60;;
52368;SDS011;38298;50.346;3.526;2023-09-18T15:11:57;1.27;;;0.70;;